Time;durP1;ratioP1;P1;durP2;ratioP2;P2;SDS_P1;SDS_P2;PMS_P1;PMS_P2;Temp;Humidity;BMP_temperature;BMP_pressure;BME280_temperature;BME280_humidity;BME280_pressure;Samples;Min_cycle;Max_cycle;Signal;HPM_P1;HPM_P2
2022/10/28 00:00:47;;;;;;;49.67;23.33;;;;;;;;;;5080405;28;20049;-81
2022/10/28 00:03:32;;;;;;;39.88;20.58;;;;;;;;;;5073571;28;20041;-79
2022/10/28 00:06:21;;;;;;;45.67;21.27;;;;;;;;;;5080127;28;20045;-78
2022/10/28 00:09:07;;;;;;;52.17;21.40;;;;;;;;;;5080163;28;20041;-80
2022/10/28 00:11:52;;;;;;;42.38;17.98;;;;;;;;;;5073688;28;20080;-80
2022/10/28 00:14:39;;;;;;;36.22;15.57;;;;;;;;;;5081199;28;20052;-79
2022/10/28 00:17:24;;;;;;;39.72;18.15;;;;;;;;;;5083141;28;20063;-80
2022/10/28 00:20:10;;;;;;;40.75;18.00;;;;;;;;;;5084193;28;20052;-79
2022/10/28 00:22:55;;;;;;;39.65;17.23;;;;;;;;;;5077114;28;20036;-79
2022/10/28 00:25:40;;;;;;;30.77;15.13;;;;;;;;;;5076979;28;20466;-79
2022/10/28 00:28:26;;;;;;;31.40;13.30;;;;;;;;;;5083135;28;20382;-80
2022/10/28 00:31:13;;;;;;;22.98;11.15;;;;;;;;;;5079398;28;20041;-80
2022/10/28 00:34:02;;;;;;;27.70;12.93;;;;;;;;;;5083286;28;20037;-79
2022/10/28 00:36:47;;;;;;;28.70;11.50;;;;;;;;;;5083546;28;20040;-79
2022/10/28 00:39:32;;;;;;;24.90;12.48;;;;;;;;;;5076640;28;20045;-80
2022/10/28 00:42:21;;;;;;;20.13;9.88;;;;;;;;;;5083034;28;20036;-80
2022/10/28 00:45:08;;;;;;;20.60;10.30;;;;;;;;;;5083681;28;20041;-81
2022/10/28 00:47:58;;;;;;;35.42;14.48;;;;;;;;;;5076269;28;20052;-79
2022/10/28 00:50:45;;;;;;;39.67;16.33;;;;;;;;;;5079495;28;20056;-79
2022/10/28 00:53:32;;;;;;;38.47;18.80;;;;;;;;;;5083349;28;20391;-79
2022/10/28 00:56:17;;;;;;;41.53;17.58;;;;;;;;;;5082721;28;20471;-80
2022/10/28 00:59:07;;;;;;;44.80;19.15;;;;;;;;;;5083420;28;20036;-80
2022/10/28 01:01:53;;;;;;;49.47;20.35;;;;;;;;;;5082010;28;20044;-80
2022/10/28 01:04:39;;;;;;;41.83;18.90;;;;;;;;;;5082181;28;20040;-81
2022/10/28 01:07:25;;;;;;;42.50;18.85;;;;;;;;;;5074995;28;20037;-78
2022/10/28 01:10:12;;;;;;;40.53;18.58;;;;;;;;;;5073736;28;20048;-80
2022/10/28 01:13:10;;;;;;;40.80;19.15;;;;;;;;;;5079740;28;20036;-80
2022/10/28 01:16:08;;;;;;;48.28;20.17;;;;;;;;;;5085052;28;20041;-79
2022/10/28 01:19:16;;;;;;;39.47;18.63;;;;;;;;;;5076124;28;20653;-79
2022/10/28 01:22:19;;;;;;;38.53;17.17;;;;;;;;;;5082767;28;20041;-80
2022/10/28 01:25:42;;;;;;;30.42;15.20;;;;;;;;;;5081823;28;20383;-79
2022/10/28 01:28:51;;;;;;;29.63;13.27;;;;;;;;;;5075719;28;20471;-80
2022/10/28 01:31:56;;;;;;;21.33;10.50;;;;;;;;;;5055468;28;20041;-78
2022/10/28 01:35:03;;;;;;;21.08;10.88;;;;;;;;;;5068324;28;20391;-80
2022/10/28 01:38:13;;;;;;;24.77;10.38;;;;;;;;;;5081899;28;20379;-80
2022/10/28 01:41:07;;;;;;;25.80;11.27;;;;;;;;;;5075902;28;20052;-79
2022/10/28 01:44:36;;;;;;;19.90;10.63;;;;;;;;;;5075198;28;20036;-78
2022/10/28 01:47:29;;;;;;;22.90;12.55;;;;;;;;;;5075746;28;20399;-79
2022/10/28 01:50:24;;;;;;;28.27;11.40;;;;;;;;;;5078847;28;20387;-80
2022/10/28 01:53:14;;;;;;;22.25;11.52;;;;;;;;;;5075603;28;20048;-80
2022/10/28 01:56:05;;;;;;;19.52;11.60;;;;;;;;;;5081946;28;20456;-79
2022/10/28 01:58:54;;;;;;;21.35;11.38;;;;;;;;;;5075758;28;20048;-79
2022/10/28 02:01:40;;;;;;;22.88;11.35;;;;;;;;;;5075676;28;20455;-80
2022/10/28 02:04:25;;;;;;;21.40;11.30;;;;;;;;;;5074899;28;20040;-79
2022/10/28 02:07:12;;;;;;;26.05;10.90;;;;;;;;;;5075379;28;20049;-79
2022/10/28 02:10:32;;;;;;;24.70;11.95;;;;;;;;;;5081524;28;20048;-79
2022/10/28 02:13:23;;;;;;;22.02;11.63;;;;;;;;;;5072778;28;20367;-80
2022/10/28 02:16:26;;;;;;;20.00;11.32;;;;;;;;;;5074909;28;20037;-80
2022/10/28 02:19:29;;;;;;;24.02;10.80;;;;;;;;;;5081322;28;20042;-80
2022/10/28 02:22:46;;;;;;;19.48;11.20;;;;;;;;;;5081303;28;20048;-79
2022/10/28 02:25:40;;;;;;;22.08;11.10;;;;;;;;;;5081385;28;20048;-78
2022/10/28 02:28:38;;;;;;;23.55;11.60;;;;;;;;;;5081062;28;20383;-79
2022/10/28 02:31:43;;;;;;;28.88;13.13;;;;;;;;;;5074962;28;20048;-79
2022/10/28 02:34:34;;;;;;;;;;;;;;;;;;5074573;28;20032;-79
2022/10/28 02:37:25;;;;;;;29.30;13.82;;;;;;;;;;5074251;28;19908;-78
2022/10/28 02:40:17;;;;;;;28.27;13.60;;;;;;;;;;5074483;28;20048;-81
2022/10/28 02:43:05;;;;;;;35.17;16.75;;;;;;;;;;5075503;28;20045;-78
2022/10/28 02:45:56;;;;;;;14.20;7.57;;;;;;;;;;5081141;28;20052;-77
2022/10/28 02:48:51;;;;;;;22.08;9.10;;;;;;;;;;5073936;28;20040;-80
2022/10/28 02:51:45;;;;;;;13.43;7.72;;;;;;;;;;5074887;28;20483;-81
2022/10/28 02:54:39;;;;;;;15.05;8.95;;;;;;;;;;5080939;28;20044;-79
2022/10/28 02:57:29;;;;;;;18.05;8.88;;;;;;;;;;5074287;28;20040;-80
2022/10/28 03:00:19;;;;;;;17.90;9.32;;;;;;;;;;5081442;28;20455;-80
2022/10/28 03:03:04;;;;;;;16.85;9.48;;;;;;;;;;5074035;28;20045;-81
2022/10/28 03:05:49;;;;;;;16.35;9.55;;;;;;;;;;5074268;28;20044;-80
2022/10/28 03:08:35;;;;;;;17.65;10.20;;;;;;;;;;5073836;28;20045;-81
2022/10/28 03:11:20;;;;;;;18.20;9.93;;;;;;;;;;5080717;28;20040;-81
2022/10/28 03:14:06;;;;;;;36.92;20.48;;;;;;;;;;5073988;28;20036;-81
2022/10/28 03:16:50;;;;;;;33.20;19.15;;;;;;;;;;5080948;28;20387;-80
2022/10/28 03:19:36;;;;;;;30.85;19.23;;;;;;;;;;5080811;28;20048;-79
2022/10/28 03:22:22;;;;;;;28.48;16.90;;;;;;;;;;5073368;28;20036;-81
2022/10/28 03:25:07;;;;;;;28.65;15.05;;;;;;;;;;5081257;28;20364;-78
2022/10/28 03:27:53;;;;;;;23.63;15.63;;;;;;;;;;5081739;28;20387;-80
2022/10/28 03:30:38;;;;;;;24.92;13.57;;;;;;;;;;5079967;28;20044;-80
2022/10/28 03:33:24;;;;;;;22.73;11.55;;;;;;;;;;5073695;28;20041;-79
2022/10/28 03:36:09;;;;;;;17.60;10.00;;;;;;;;;;5080239;28;20037;-80
2022/10/28 03:38:55;;;;;;;16.52;8.70;;;;;;;;;;5073834;28;20471;-80
2022/10/28 03:41:40;;;;;;;16.70;7.88;;;;;;;;;;5079380;28;20037;-80
2022/10/28 03:44:25;;;;;;;17.30;9.88;;;;;;;;;;5079463;28;20041;-79
2022/10/28 03:47:11;;;;;;;27.65;11.43;;;;;;;;;;5080600;28;20040;-80
2022/10/28 03:49:56;;;;;;;20.40;11.05;;;;;;;;;;5075017;28;20044;-80
2022/10/28 03:52:45;;;;;;;18.23;9.90;;;;;;;;;;5084775;28;20041;-80
2022/10/28 03:55:31;;;;;;;16.27;9.10;;;;;;;;;;5084418;28;20044;-79
2022/10/28 03:58:16;;;;;;;15.35;9.02;;;;;;;;;;5077059;28;20044;-79
2022/10/28 04:01:02;;;;;;;18.42;10.10;;;;;;;;;;5084019;28;20040;-81
2022/10/28 04:03:47;;;;;;;17.88;9.07;;;;;;;;;;5076887;28;20037;-80
2022/10/28 04:06:33;;;;;;;21.48;9.65;;;;;;;;;;5083980;28;20040;-79
2022/10/28 04:09:18;;;;;;;19.52;9.38;;;;;;;;;;5084449;28;20036;-81
2022/10/28 04:12:05;;;;;;;17.35;9.38;;;;;;;;;;5084554;28;20459;-81
2022/10/28 04:14:52;;;;;;;17.55;9.02;;;;;;;;;;5071198;28;20459;-80
2022/10/28 04:17:38;;;;;;;17.30;8.35;;;;;;;;;;5056813;28;20497;-77
2022/10/28 04:20:23;;;;;;;18.65;8.75;;;;;;;;;;5068615;28;20056;-80
2022/10/28 04:23:13;;;;;;;16.23;8.93;;;;;;;;;;5068581;28;20040;-78
2022/10/28 04:25:59;;;;;;;20.52;8.93;;;;;;;;;;5076917;28;20468;-81
2022/10/28 04:28:44;;;;;;;25.67;10.68;;;;;;;;;;5082809;28;20040;-80
2022/10/28 04:31:29;;;;;;;17.15;8.68;;;;;;;;;;5083471;28;20045;-80
2022/10/28 04:34:15;;;;;;;16.30;9.05;;;;;;;;;;5076990;28;20511;-79
2022/10/28 04:37:00;;;;;;;21.83;9.90;;;;;;;;;;5083857;28;20036;-81
2022/10/28 04:39:46;;;;;;;17.80;9.48;;;;;;;;;;5083311;28;20048;-80
2022/10/28 04:42:32;;;;;;;23.45;9.57;;;;;;;;;;5083560;28;20036;-79
2022/10/28 04:45:17;;;;;;;19.65;9.98;;;;;;;;;;5083157;28;20044;-80
2022/10/28 04:48:03;;;;;;;17.95;10.27;;;;;;;;;;5076974;28;20375;-80
2022/10/28 04:50:49;;;;;;;25.70;10.85;;;;;;;;;;5078950;28;20044;-78
2022/10/28 04:53:35;;;;;;;21.20;10.57;;;;;;;;;;5084343;28;20048;-80
2022/10/28 04:56:21;;;;;;;20.17;11.15;;;;;;;;;;5089639;28;20040;-79
2022/10/28 04:59:06;;;;;;;21.17;11.02;;;;;;;;;;5090769;28;20475;-81
2022/10/28 05:01:52;;;;;;;21.70;11.68;;;;;;;;;;5097078;28;20044;-81
2022/10/28 05:04:37;;;;;;;19.38;10.90;;;;;;;;;;5103392;28;20040;-80
2022/10/28 05:07:23;;;;;;;22.42;12.20;;;;;;;;;;5103095;28;20044;-81
2022/10/28 05:10:08;;;;;;;25.45;12.45;;;;;;;;;;5103070;28;20032;-80
2022/10/28 05:12:53;;;;;;;25.25;12.45;;;;;;;;;;5103416;28;20043;-79
2022/10/28 05:15:39;;;;;;;20.27;11.02;;;;;;;;;;5102800;28;20048;-78
2022/10/28 05:18:24;;;;;;;23.65;12.35;;;;;;;;;;5084100;28;20383;-78
2022/10/28 05:21:09;;;;;;;27.98;12.57;;;;;;;;;;5060679;28;20040;-79
2022/10/28 05:23:54;;;;;;;23.88;11.73;;;;;;;;;;5062709;28;20040;-81
2022/10/28 05:26:40;;;;;;;27.23;12.55;;;;;;;;;;5055001;28;20049;-80
2022/10/28 05:29:25;;;;;;;27.70;11.63;;;;;;;;;;5055059;28;20037;-81
2022/10/28 05:32:11;;;;;;;21.95;12.52;;;;;;;;;;5056460;28;20041;-79
2022/10/28 05:34:56;;;;;;;27.40;12.63;;;;;;;;;;5071897;28;20040;-80
2022/10/28 05:37:42;;;;;;;23.27;11.32;;;;;;;;;;5078388;28;20045;-80
2022/10/28 05:40:27;;;;;;;27.65;12.27;;;;;;;;;;5082574;28;20053;-79
2022/10/28 05:43:13;;;;;;;31.83;12.40;;;;;;;;;;5082115;28;20044;-80
2022/10/28 05:45:58;;;;;;;18.88;11.35;;;;;;;;;;5075806;28;20057;-80
2022/10/28 05:48:44;;;;;;;23.52;11.63;;;;;;;;;;5077406;28;20036;-80
2022/10/28 05:51:29;;;;;;;28.02;12.20;;;;;;;;;;5075350;28;20044;-79
2022/10/28 05:54:15;;;;;;;30.45;13.30;;;;;;;;;;5082110;28;20045;-79
2022/10/28 05:57:00;;;;;;;28.92;13.15;;;;;;;;;;5081407;28;20048;-79
2022/10/28 05:59:45;;;;;;;21.67;12.73;;;;;;;;;;5082102;28;20053;-80
2022/10/28 06:02:30;;;;;;;31.98;17.80;;;;;;;;;;5074326;28;20044;-79
2022/10/28 06:05:15;;;;;;;29.42;17.95;;;;;;;;;;5061445;28;20040;-78
2022/10/28 06:08:03;;;;;;;27.48;16.65;;;;;;;;;;5054800;28;20352;-78
2022/10/28 06:10:50;;;;;;;36.33;17.70;;;;;;;;;;5060108;28;20049;-81
2022/10/28 06:13:36;;;;;;;30.13;18.20;;;;;;;;;;5054929;28;20052;-81
2022/10/28 06:16:21;;;;;;;33.53;20.60;;;;;;;;;;5061458;28;20053;-81
2022/10/28 06:19:06;;;;;;;49.15;17.10;;;;;;;;;;5061764;28;20044;-82
2022/10/28 06:21:52;;;;;;;40.45;16.08;;;;;;;;;;5089154;28;20052;-80
2022/10/28 06:24:37;;;;;;;31.45;16.30;;;;;;;;;;5079442;28;20029;-82
2022/10/28 06:27:23;;;;;;;24.85;15.65;;;;;;;;;;5083501;28;20044;-80
2022/10/28 06:30:09;;;;;;;28.60;15.18;;;;;;;;;;5079805;28;20041;-80
2022/10/28 06:32:57;;;;;;;28.42;15.57;;;;;;;;;;5078593;28;20459;-81
2022/10/28 06:35:43;;;;;;;29.30;16.00;;;;;;;;;;5073694;28;20391;-82
2022/10/28 06:38:29;;;;;;;25.48;15.75;;;;;;;;;;5081039;28;20132;-80
2022/10/28 06:41:14;;;;;;;30.00;15.75;;;;;;;;;;5080951;28;20040;-79
2022/10/28 06:43:59;;;;;;;33.75;16.02;;;;;;;;;;5081218;28;20381;-79
2022/10/28 06:46:45;;;;;;;34.67;17.42;;;;;;;;;;5074387;28;20052;-79
2022/10/28 06:49:30;;;;;;;28.38;17.45;;;;;;;;;;5078672;28;20044;-79
2022/10/28 06:52:16;;;;;;;38.17;17.77;;;;;;;;;;5073674;28;20045;-79
2022/10/28 06:55:02;;;;;;;43.20;18.95;;;;;;;;;;5074259;28;20066;-80
2022/10/28 06:57:47;;;;;;;41.28;20.45;;;;;;;;;;5074228;28;20036;-78
2022/10/28 07:00:33;;;;;;;44.38;20.80;;;;;;;;;;5080838;28;20049;-79
2022/10/28 07:03:19;;;;;;;34.38;18.10;;;;;;;;;;5082313;28;20324;-79
2022/10/28 07:06:04;;;;;;;37.55;18.42;;;;;;;;;;5080428;28;20045;-79
2022/10/28 07:08:50;;;;;;;33.67;17.77;;;;;;;;;;5080495;28;20464;-79
2022/10/28 07:11:35;;;;;;;33.92;18.45;;;;;;;;;;5073784;28;20037;-78
2022/10/28 07:14:20;;;;;;;35.00;17.58;;;;;;;;;;5073611;28;20044;-77
2022/10/28 07:17:05;;;;;;;31.20;17.85;;;;;;;;;;5080351;28;20048;-78
2022/10/28 07:19:51;;;;;;;27.95;13.70;;;;;;;;;;5073642;28;20045;-80
2022/10/28 07:22:36;;;;;;;29.83;13.55;;;;;;;;;;5073440;28;20052;-78
2022/10/28 07:25:21;;;;;;;24.02;13.98;;;;;;;;;;5078876;28;20467;-79
2022/10/28 07:28:07;;;;;;;28.55;13.05;;;;;;;;;;5079834;28;20045;-79
2022/10/28 07:30:52;;;;;;;22.15;12.27;;;;;;;;;;5080085;28;20048;-78
2022/10/28 07:33:38;;;;;;;18.05;11.45;;;;;;;;;;5073044;28;20032;-78
2022/10/28 07:36:24;;;;;;;21.15;11.88;;;;;;;;;;5080463;28;20036;-77
2022/10/28 07:39:09;;;;;;;22.33;10.57;;;;;;;;;;5073771;28;20040;-80
2022/10/28 07:41:55;;;;;;;11.07;4.78;;;;;;;;;;5080071;28;20032;-77
2022/10/28 07:44:40;;;;;;;8.75;3.83;;;;;;;;;;5080261;28;20040;-81
2022/10/28 07:47:26;;;;;;;8.82;4.57;;;;;;;;;;5081471;28;20044;-79
2022/10/28 07:50:12;;;;;;;12.43;6.85;;;;;;;;;;5077342;28;20049;-79
2022/10/28 07:52:58;;;;;;;21.25;9.00;;;;;;;;;;5080347;28;20041;-78
2022/10/28 07:55:43;;;;;;;16.40;9.13;;;;;;;;;;5079858;28;20036;-80
2022/10/28 07:58:29;;;;;;;17.65;7.80;;;;;;;;;;5080006;28;20036;-79
2022/10/28 08:01:17;;;;;;;23.55;9.20;;;;;;;;;;5080082;28;20049;-80
2022/10/28 08:04:03;;;;;;;14.85;7.57;;;;;;;;;;5073229;28;20379;-78
2022/10/28 08:06:48;;;;;;;20.65;8.15;;;;;;;;;;5072318;28;20033;-78
2022/10/28 08:09:34;;;;;;;14.73;7.30;;;;;;;;;;5072352;28;20040;-78
2022/10/28 08:12:19;;;;;;;11.43;7.00;;;;;;;;;;5079729;28;20467;-80
2022/10/28 08:15:08;;;;;;;18.13;8.90;;;;;;;;;;5072953;28;20048;-80
2022/10/28 08:17:53;;;;;;;14.95;8.15;;;;;;;;;;5079805;28;20099;-78
2022/10/28 08:20:39;;;;;;;10.52;5.82;;;;;;;;;;5071850;28;20475;-80
2022/10/28 08:23:25;;;;;;;13.45;6.75;;;;;;;;;;5072811;28;20048;-78
2022/10/28 08:26:12;;;;;;;14.93;7.45;;;;;;;;;;5080004;28;20048;-79
2022/10/28 08:28:57;;;;;;;16.80;7.40;;;;;;;;;;5073738;28;20044;-78
2022/10/28 08:31:42;;;;;;;16.55;7.75;;;;;;;;;;5080298;28;20041;-78
2022/10/28 08:34:29;;;;;;;15.32;7.50;;;;;;;;;;5073133;28;20040;-79
2022/10/28 08:37:15;;;;;;;12.93;7.40;;;;;;;;;;5076408;28;20037;-80
2022/10/28 08:40:00;;;;;;;16.33;7.38;;;;;;;;;;5083699;28;20332;-79
2022/10/28 08:42:51;;;;;;;14.43;7.20;;;;;;;;;;5076870;28;20040;-79
2022/10/28 08:45:42;;;;;;;15.13;8.75;;;;;;;;;;5076233;28;20170;-80
2022/10/28 08:48:32;;;;;;;17.25;7.97;;;;;;;;;;5083702;28;20044;-79
2022/10/28 08:51:49;;;;;;;15.77;6.80;;;;;;;;;;5076682;28;20053;-80
2022/10/28 08:54:46;;;;;;;14.98;8.75;;;;;;;;;;5076473;28;20048;-80
2022/10/28 08:57:45;;;;;;;16.63;8.10;;;;;;;;;;5082953;28;20036;-80
2022/10/28 09:00:32;;;;;;;14.65;7.35;;;;;;;;;;5076520;28;20048;-77
2022/10/28 09:03:39;;;;;;;14.77;7.80;;;;;;;;;;5076700;28;20037;-78
2022/10/28 09:06:24;;;;;;;15.63;7.38;;;;;;;;;;5082872;28;20037;-78
2022/10/28 09:09:19;;;;;;;14.73;7.75;;;;;;;;;;5082810;28;20376;-79
2022/10/28 09:12:27;;;;;;;14.27;7.47;;;;;;;;;;5083053;28;20041;-79
2022/10/28 09:15:21;;;;;;;16.42;7.85;;;;;;;;;;5082126;28;20049;-80
2022/10/28 09:18:18;;;;;;;16.77;7.28;;;;;;;;;;5075733;28;20048;-79
2022/10/28 09:21:08;;;;;;;10.75;6.25;;;;;;;;;;5082845;28;20049;-78
2022/10/28 09:23:56;;;;;;;11.40;6.38;;;;;;;;;;5075833;28;20040;-79
2022/10/28 09:26:56;;;;;;;13.32;6.20;;;;;;;;;;5082358;28;20459;-78
2022/10/28 09:29:59;;;;;;;14.25;7.38;;;;;;;;;;5082519;28;20459;-79
2022/10/28 09:32:56;;;;;;;11.00;6.28;;;;;;;;;;5082162;28;20052;-80
2022/10/28 09:35:45;;;;;;;14.73;6.50;;;;;;;;;;5055816;28;20037;-79
2022/10/28 09:38:33;;;;;;;8.70;5.78;;;;;;;;;;5064499;28;20471;-80
2022/10/28 09:41:26;;;;;;;12.70;5.85;;;;;;;;;;5058915;28;20049;-77
2022/10/28 09:44:24;;;;;;;15.00;6.80;;;;;;;;;;5059150;28;20372;-79
2022/10/28 09:47:21;;;;;;;15.77;6.32;;;;;;;;;;5064593;28;20041;-77
2022/10/28 09:50:16;;;;;;;13.93;6.53;;;;;;;;;;5058656;28;20041;-79
2022/10/28 09:53:25;;;;;;;;;;;;;;;;;;5065828;28;20400;-79
2022/10/28 09:56:10;;;;;;;13.82;6.57;;;;;;;;;;5059047;28;19913;-78
2022/10/28 09:59:16;;;;;;;16.63;7.18;;;;;;;;;;5063318;28;20044;-80
2022/10/28 10:02:03;;;;;;;12.63;6.30;;;;;;;;;;5061901;28;20036;-79
2022/10/28 10:04:48;;;;;;;18.33;6.18;;;;;;;;;;5062208;28;20049;-78
2022/10/28 10:07:38;;;;;;;11.48;4.95;;;;;;;;;;5054826;28;20045;-80
2022/10/28 10:10:26;;;;;;;12.25;5.63;;;;;;;;;;5061850;28;20036;-79
2022/10/28 10:13:14;;;;;;;17.17;5.40;;;;;;;;;;5062120;28;20053;-80
2022/10/28 10:16:04;;;;;;;9.15;4.47;;;;;;;;;;5061034;28;20040;-79
2022/10/28 10:18:54;;;;;;;11.43;4.93;;;;;;;;;;5054748;28;20376;-79
2022/10/28 10:21:49;;;;;;;11.13;4.63;;;;;;;;;;5054569;28;20049;-78
2022/10/28 10:24:35;;;;;;;10.10;4.97;;;;;;;;;;5054750;28;20041;-78
2022/10/28 10:27:20;;;;;;;11.57;4.93;;;;;;;;;;5061696;28;20041;-79
2022/10/28 10:30:15;;;;;;;11.80;5.32;;;;;;;;;;5054087;28;20045;-78
2022/10/28 10:33:01;;;;;;;8.70;4.95;;;;;;;;;;5055127;28;20041;-79
2022/10/28 10:36:08;;;;;;;11.30;4.43;;;;;;;;;;5074112;28;20383;-78
2022/10/28 10:39:00;;;;;;;9.40;4.97;;;;;;;;;;5081797;28;20044;-78
2022/10/28 10:41:46;;;;;;;9.07;4.75;;;;;;;;;;5074611;28;20036;-80
2022/10/28 10:44:34;;;;;;;10.77;5.03;;;;;;;;;;5073970;28;20045;-79
2022/10/28 10:47:19;;;;;;;11.38;5.15;;;;;;;;;;5081502;28;20040;-78
2022/10/28 10:50:20;;;;;;;11.98;5.20;;;;;;;;;;5073567;28;20460;-81
2022/10/28 10:53:18;;;;;;;11.00;4.85;;;;;;;;;;5074668;28;20036;-80
2022/10/28 10:56:07;;;;;;;9.25;5.07;;;;;;;;;;5080484;28;20044;-79
2022/10/28 10:58:55;;;;;;;9.60;3.92;;;;;;;;;;5080780;28;20468;-81
2022/10/28 11:01:40;;;;;;;10.32;4.00;;;;;;;;;;5080994;28;20040;-81
2022/10/28 11:04:27;;;;;;;11.35;5.35;;;;;;;;;;5080541;28;20040;-79
2022/10/28 11:07:14;;;;;;;8.70;4.47;;;;;;;;;;5073950;28;20048;-77
2022/10/28 11:10:01;;;;;;;9.07;4.47;;;;;;;;;;5080779;28;20375;-79
2022/10/28 11:12:52;;;;;;;9.43;4.25;;;;;;;;;;5079920;28;20369;-79
2022/10/28 11:15:37;;;;;;;10.40;4.60;;;;;;;;;;5073926;28;20032;-79
2022/10/28 11:18:22;;;;;;;11.57;4.85;;;;;;;;;;5073188;28;20032;-81
2022/10/28 11:21:36;;;;;;;11.40;4.43;;;;;;;;;;5080716;28;20048;-81
2022/10/28 11:24:38;;;;;;;11.07;4.95;;;;;;;;;;5074168;28;20044;-80
2022/10/28 11:27:37;;;;;;;7.35;4.00;;;;;;;;;;5080428;28;20464;-78
2022/10/28 11:30:39;;;;;;;7.75;3.60;;;;;;;;;;5080566;28;20045;-77
2022/10/28 11:33:44;;;;;;;10.30;4.70;;;;;;;;;;5073209;28;20044;-80
2022/10/28 11:36:45;;;;;;;9.77;4.78;;;;;;;;;;5079080;28;20040;-80
2022/10/28 11:39:38;;;;;;;7.38;3.92;;;;;;;;;;5073468;28;20044;-78
2022/10/28 11:42:39;;;;;;;10.63;4.50;;;;;;;;;;5080480;28;20084;-77
2022/10/28 11:45:41;;;;;;;10.55;4.88;;;;;;;;;;5079874;28;20048;-79
2022/10/28 11:48:44;;;;;;;13.52;4.28;;;;;;;;;;5073513;28;20033;-77
2022/10/28 11:51:53;;;;;;;9.88;4.18;;;;;;;;;;5074032;28;20044;-80
2022/10/28 11:54:41;;;;;;;9.38;4.38;;;;;;;;;;5079794;28;20040;-79
2022/10/28 11:57:45;;;;;;;7.07;3.83;;;;;;;;;;5080733;28;20040;-79
2022/10/28 12:00:30;;;;;;;8.63;3.97;;;;;;;;;;5079958;28;20044;-79
2022/10/28 12:03:40;;;;;;;11.43;4.38;;;;;;;;;;5073245;28;20045;-80
2022/10/28 12:07:02;;;;;;;11.15;4.57;;;;;;;;;;5080565;28;20391;-81
2022/10/28 12:09:57;;;;;;;9.20;4.32;;;;;;;;;;5071906;28;20041;-81
2022/10/28 12:13:04;;;;;;;9.68;4.25;;;;;;;;;;5096828;28;20036;-82
2022/10/28 12:16:14;;;;;;;9.88;4.22;;;;;;;;;;5077416;28;20056;-79
2022/10/28 12:19:19;;;;;;;6.35;3.80;;;;;;;;;;5076946;28;20048;-80
2022/10/28 12:22:18;;;;;;;13.73;4.30;;;;;;;;;;5095501;28;20048;-79
2022/10/28 12:25:11;;;;;;;9.95;4.20;;;;;;;;;;5082835;28;20040;-78
2022/10/28 12:28:23;;;;;;;9.60;4.03;;;;;;;;;;5074458;28;20383;-80
2022/10/28 12:31:22;;;;;;;9.45;4.40;;;;;;;;;;5076278;28;20045;-79
2022/10/28 12:34:14;;;;;;;10.73;4.30;;;;;;;;;;5072551;28;20041;-80
2022/10/28 12:37:21;;;;;;;9.48;3.85;;;;;;;;;;5082185;28;20049;-79
2022/10/28 12:40:16;;;;;;;8.73;3.70;;;;;;;;;;5062289;28;20049;-80
2022/10/28 12:43:15;;;;;;;10.50;4.35;;;;;;;;;;5065001;28;20033;-80
2022/10/28 12:46:01;;;;;;;7.47;3.92;;;;;;;;;;5074493;28;20388;-80
2022/10/28 12:48:53;;;;;;;10.85;3.67;;;;;;;;;;5067644;28;20052;-78
2022/10/28 12:51:40;;;;;;;8.90;3.72;;;;;;;;;;5073406;28;20044;-79
2022/10/28 12:54:40;;;;;;;8.13;4.32;;;;;;;;;;5088740;28;20032;-80
2022/10/28 12:57:27;;;;;;;9.63;5.00;;;;;;;;;;5077024;28;20036;-81
2022/10/28 13:00:18;;;;;;;13.77;4.35;;;;;;;;;;5066331;28;20380;-81
2022/10/28 13:03:06;;;;;;;10.05;3.95;;;;;;;;;;5076578;28;20040;-80
2022/10/28 13:06:13;;;;;;;8.77;4.18;;;;;;;;;;5080697;28;20045;-82
2022/10/28 13:09:33;;;;;;;10.13;3.97;;;;;;;;;;5074171;28;20486;-80
2022/10/28 13:12:24;;;;;;;8.95;4.35;;;;;;;;;;5067280;28;20424;-82
2022/10/28 13:15:16;;;;;;;6.53;4.13;;;;;;;;;;5074136;28;20029;-79
2022/10/28 13:18:25;;;;;;;15.88;4.40;;;;;;;;;;5067382;28;20036;-79
2022/10/28 13:21:19;;;;;;;12.40;4.82;;;;;;;;;;5074459;28;20066;-81
2022/10/28 13:24:15;;;;;;;;;;;;;;;;;;5082769;28;20040;-81
2022/10/28 13:27:04;;;;;;;10.82;4.72;;;;;;;;;;5058593;28;20340;-80
2022/10/28 13:29:57;;;;;;;12.05;4.68;;;;;;;;;;5061992;28;20045;-79
2022/10/28 13:32:43;;;;;;;11.57;4.30;;;;;;;;;;5062585;28;20032;-81
2022/10/28 13:35:29;;;;;;;14.95;4.53;;;;;;;;;;5058501;28;20048;-80
2022/10/28 13:38:23;;;;;;;8.50;4.15;;;;;;;;;;5092581;28;20040;-82
2022/10/28 13:41:24;;;;;;;9.68;4.72;;;;;;;;;;5085221;28;20052;-80
2022/10/28 13:44:23;;;;;;;9.32;4.68;;;;;;;;;;5070342;28;20049;-80
2022/10/28 13:47:12;;;;;;;16.90;5.00;;;;;;;;;;5074044;28;20044;-80
2022/10/28 13:50:30;;;;;;;14.82;4.55;;;;;;;;;;5068076;28;20044;-79
2022/10/28 13:53:28;;;;;;;10.23;4.45;;;;;;;;;;5068556;28;20053;-82
2022/10/28 13:56:26;;;;;;;7.60;4.40;;;;;;;;;;5073885;28;20040;-79
2022/10/28 13:59:11;;;;;;;12.77;4.90;;;;;;;;;;5055112;28;20045;-79
2022/10/28 14:02:03;;;;;;;12.60;4.40;;;;;;;;;;5064975;28;20037;-80
2022/10/28 14:05:01;;;;;;;10.57;4.32;;;;;;;;;;5089972;28;20040;-79
2022/10/28 14:07:53;;;;;;;12.05;4.70;;;;;;;;;;5086969;28;20036;-79
2022/10/28 14:10:39;;;;;;;11.05;4.72;;;;;;;;;;5077359;28;20041;-81
2022/10/28 14:13:25;;;;;;;8.43;4.78;;;;;;;;;;5062991;28;20049;-81
2022/10/28 14:16:24;;;;;;;9.75;4.68;;;;;;;;;;5060687;28;20052;-81
2022/10/28 14:19:09;;;;;;;10.88;4.35;;;;;;;;;;5064589;28;20044;-80
2022/10/28 14:22:06;;;;;;;7.97;4.57;;;;;;;;;;5079947;28;20037;-79
2022/10/28 14:24:52;;;;;;;7.05;4.47;;;;;;;;;;5082181;28;20371;-81
2022/10/28 14:27:42;;;;;;;14.43;5.95;;;;;;;;;;5064000;28;20052;-83
2022/10/28 14:30:27;;;;;;;15.15;4.93;;;;;;;;;;5073755;28;20052;-80
2022/10/28 14:33:20;;;;;;;12.38;5.18;;;;;;;;;;5075859;28;20037;-80
2022/10/28 14:36:18;;;;;;;11.07;4.95;;;;;;;;;;5066378;28;20040;-82
2022/10/28 14:39:03;;;;;;;24.10;5.70;;;;;;;;;;5066370;28;20049;-81
2022/10/28 14:42:12;;;;;;;16.92;6.07;;;;;;;;;;5094229;28;20478;-81
2022/10/28 14:45:09;;;;;;;14.63;5.15;;;;;;;;;;5103051;28;20044;-82
2022/10/28 14:48:14;;;;;;;15.95;6.07;;;;;;;;;;5102739;28;20044;-81
2022/10/28 14:51:01;;;;;;;26.90;6.85;;;;;;;;;;5097467;28;20052;-82
2022/10/28 14:53:51;;;;;;;22.70;6.22;;;;;;;;;;5079171;28;20044;-82
2022/10/28 14:56:38;;;;;;;16.55;5.22;;;;;;;;;;5070851;28;20467;-82
2022/10/28 14:59:25;;;;;;;15.50;6.50;;;;;;;;;;5075981;28;20036;-81
2022/10/28 15:02:17;;;;;;;17.83;7.72;;;;;;;;;;5101069;28;20338;-81
2022/10/28 15:05:02;;;;;;;21.65;9.27;;;;;;;;;;5101672;28;20390;-81
2022/10/28 15:07:47;;;;;;;18.55;8.18;;;;;;;;;;5074543;28;20037;-81
2022/10/28 15:10:33;;;;;;;16.70;9.52;;;;;;;;;;5060646;28;20041;-80
2022/10/28 15:13:19;;;;;;;24.98;10.73;;;;;;;;;;5075426;28;20040;-81
2022/10/28 15:16:03;;;;;;;24.52;11.02;;;;;;;;;;5100180;28;20036;-80
2022/10/28 15:18:51;;;;;;;36.72;12.45;;;;;;;;;;5100965;28;20052;-80
2022/10/28 15:21:37;;;;;;;29.13;12.35;;;;;;;;;;5100447;28;20044;-81
2022/10/28 15:24:22;;;;;;;24.52;13.27;;;;;;;;;;5093897;28;20044;-79
2022/10/28 15:27:12;;;;;;;34.70;15.40;;;;;;;;;;5073723;28;20044;-79
2022/10/28 15:29:58;;;;;;;50.22;20.45;;;;;;;;;;5072851;28;20041;-81
2022/10/28 15:32:43;;;;;;;53.38;25.95;;;;;;;;;;5064071;28;20036;-81
2022/10/28 15:35:29;;;;;;;73.90;32.70;;;;;;;;;;5073286;28;20040;-79
2022/10/28 15:38:25;;;;;;;69.40;32.55;;;;;;;;;;5076170;28;20045;-78
2022/10/28 15:41:22;;;;;;;58.50;30.20;;;;;;;;;;5080206;28;20459;-80
2022/10/28 15:44:22;;;;;;;80.30;34.55;;;;;;;;;;5060091;28;20044;-80
2022/10/28 15:47:25;;;;;;;57.20;32.67;;;;;;;;;;5080860;28;20044;-81
2022/10/28 15:50:14;;;;;;;55.90;31.08;;;;;;;;;;5076690;28;20045;-79
2022/10/28 15:53:08;;;;;;;55.30;32.13;;;;;;;;;;5077550;28;20411;-81
2022/10/28 15:56:18;;;;;;;64.93;33.22;;;;;;;;;;5078251;28;20036;-81
2022/10/28 15:59:19;;;;;;;110.88;52.85;;;;;;;;;;5084280;28;20044;-80
2022/10/28 16:02:40;;;;;;;95.40;48.15;;;;;;;;;;5085120;28;20379;-79
2022/10/28 16:05:31;;;;;;;70.75;31.13;;;;;;;;;;5075755;28;20032;-80
2022/10/28 16:08:22;;;;;;;44.28;22.98;;;;;;;;;;5081377;28;20036;-80
2022/10/28 16:11:15;;;;;;;54.50;25.88;;;;;;;;;;5075716;28;20037;-80
2022/10/28 16:14:06;;;;;;;105.35;47.72;;;;;;;;;;5086715;28;20044;-83
2022/10/28 16:16:52;;;;;;;73.75;38.22;;;;;;;;;;5086264;28;20040;-82
2022/10/28 16:19:41;;;;;;;78.95;39.92;;;;;;;;;;5087012;28;20048;-81
2022/10/28 16:22:29;;;;;;;86.93;41.88;;;;;;;;;;5080703;28;20041;-82
2022/10/28 16:25:19;;;;;;;95.43;43.55;;;;;;;;;;5080508;28;20036;-80
2022/10/28 16:28:21;;;;;;;97.35;43.47;;;;;;;;;;5086310;28;20036;-82
2022/10/28 16:31:14;;;;;;;68.70;31.52;;;;;;;;;;5079299;28;20367;-82
2022/10/28 16:33:59;;;;;;;49.85;24.80;;;;;;;;;;5080461;28;20041;-81
2022/10/28 16:36:45;;;;;;;41.22;21.90;;;;;;;;;;5078832;28;20033;-81
2022/10/28 16:39:30;;;;;;;52.72;25.45;;;;;;;;;;5078445;28;20052;-82
2022/10/28 16:42:17;;;;;;;71.43;32.30;;;;;;;;;;5078409;28;20044;-80
2022/10/28 16:45:04;;;;;;;89.53;43.17;;;;;;;;;;5085787;28;20048;-81